sensor_id;sensor_type;location;lat;lon;timestamp;P1;durP1;ratioP1;P2;durP2;ratioP2
1993;SDS011;998;49.906;10.908;2023-03-22T00:01:13;11.40;;;9.20;;
1993;SDS011;998;49.906;10.908;2023-03-22T00:03:42;12.03;;;8.30;;
1993;SDS011;998;49.906;10.908;2023-03-22T00:06:09;12.30;;;8.50;;
1993;SDS011;998;49.906;10.908;2023-03-22T00:08:37;10.80;;;7.50;;
1993;SDS011;998;49.906;10.908;2023-03-22T00:11:05;9.63;;;8.50;;
1993;SDS011;998;49.906;10.908;2023-03-22T00:13:33;11.43;;;8.40;;
1993;SDS011;998;49.906;10.908;2023-03-22T00:16:03;14.10;;;9.40;;
1993;SDS011;998;49.906;10.908;2023-03-22T00:18:31;18.00;;;12.13;;
1993;SDS011;998;49.906;10.908;2023-03-22T00:20:58;18.20;;;11.77;;
1993;SDS011;998;49.906;10.908;2023-03-22T00:23:26;13.57;;;9.13;;
1993;SDS011;998;49.906;10.908;2023-03-22T00:25:54;13.30;;;8.60;;
1993;SDS011;998;49.906;10.908;2023-03-22T00:28:22;13.73;;;9.40;;
1993;SDS011;998;49.906;10.908;2023-03-22T00:30:51;15.10;;;9.23;;
1993;SDS011;998;49.906;10.908;2023-03-22T00:33:21;12.90;;;8.20;;
1993;SDS011;998;49.906;10.908;2023-03-22T00:35:49;14.17;;;9.20;;
1993;SDS011;998;49.906;10.908;2023-03-22T00:38:17;12.83;;;9.60;;
1993;SDS011;998;49.906;10.908;2023-03-22T00:40:44;13.33;;;9.13;;
1993;SDS011;998;49.906;10.908;2023-03-22T00:43:12;11.93;;;9.17;;
1993;SDS011;998;49.906;10.908;2023-03-22T00:45:39;12.20;;;8.87;;
1993;SDS011;998;49.906;10.908;2023-03-22T00:48:08;15.13;;;10.93;;
1993;SDS011;998;49.906;10.908;2023-03-22T00:50:38;14.00;;;9.70;;
1993;SDS011;998;49.906;10.908;2023-03-22T00:53:06;15.00;;;9.63;;
1993;SDS011;998;49.906;10.908;2023-03-22T00:55:33;14.30;;;8.97;;
1993;SDS011;998;49.906;10.908;2023-03-22T00:58:01;12.50;;;8.67;;
1993;SDS011;998;49.906;10.908;2023-03-22T01:00:28;12.37;;;9.03;;
1993;SDS011;998;49.906;10.908;2023-03-22T01:02:57;14.33;;;8.90;;
1993;SDS011;998;49.906;10.908;2023-03-22T01:05:29;14.57;;;9.40;;
1993;SDS011;998;49.906;10.908;2023-03-22T01:07:59;16.87;;;8.43;;
1993;SDS011;998;49.906;10.908;2023-03-22T01:10:30;13.37;;;8.70;;
1993;SDS011;998;49.906;10.908;2023-03-22T01:12:58;14.23;;;8.97;;
1993;SDS011;998;49.906;10.908;2023-03-22T01:15:25;11.07;;;8.67;;
1993;SDS011;998;49.906;10.908;2023-03-22T01:17:53;11.30;;;8.77;;
1993;SDS011;998;49.906;10.908;2023-03-22T01:20:20;13.20;;;8.27;;
1993;SDS011;998;49.906;10.908;2023-03-22T01:22:47;15.67;;;9.53;;
1993;SDS011;998;49.906;10.908;2023-03-22T01:25:17;12.60;;;9.17;;
1993;SDS011;998;49.906;10.908;2023-03-22T01:27:44;9.77;;;7.90;;
1993;SDS011;998;49.906;10.908;2023-03-22T01:30:12;11.10;;;8.43;;
1993;SDS011;998;49.906;10.908;2023-03-22T01:32:39;12.27;;;7.97;;
1993;SDS011;998;49.906;10.908;2023-03-22T01:35:07;11.30;;;7.53;;
1993;SDS011;998;49.906;10.908;2023-03-22T01:37:35;12.67;;;8.13;;
1993;SDS011;998;49.906;10.908;2023-03-22T01:40:03;14.50;;;10.00;;
1993;SDS011;998;49.906;10.908;2023-03-22T01:42:33;14.43;;;8.83;;
1993;SDS011;998;49.906;10.908;2023-03-22T01:45:26;11.77;;;9.10;;
1993;SDS011;998;49.906;10.908;2023-03-22T01:48:11;10.43;;;8.33;;
1993;SDS011;998;49.906;10.908;2023-03-22T01:50:44;13.30;;;8.77;;
1993;SDS011;998;49.906;10.908;2023-03-22T01:53:15;12.27;;;7.77;;
1993;SDS011;998;49.906;10.908;2023-03-22T01:55:47;13.40;;;8.70;;
1993;SDS011;998;49.906;10.908;2023-03-22T01:58:17;13.13;;;9.07;;
1993;SDS011;998;49.906;10.908;2023-03-22T02:00:46;14.50;;;8.03;;
1993;SDS011;998;49.906;10.908;2023-03-22T02:03:15;13.67;;;8.70;;
1993;SDS011;998;49.906;10.908;2023-03-22T02:05:50;11.43;;;7.60;;
1993;SDS011;998;49.906;10.908;2023-03-22T02:08:19;11.10;;;7.73;;
1993;SDS011;998;49.906;10.908;2023-03-22T02:10:47;16.10;;;9.70;;
1993;SDS011;998;49.906;10.908;2023-03-22T02:13:19;15.77;;;8.30;;
1993;SDS011;998;49.906;10.908;2023-03-22T02:15:54;10.40;;;8.03;;
1993;SDS011;998;49.906;10.908;2023-03-22T02:18:36;11.17;;;8.23;;
1993;SDS011;998;49.906;10.908;2023-03-22T02:27:51;11.20;;;7.43;;
1993;SDS011;998;49.906;10.908;2023-03-22T02:30:42;12.73;;;7.70;;
1993;SDS011;998;49.906;10.908;2023-03-22T02:33:34;13.83;;;7.83;;
1993;SDS011;998;49.906;10.908;2023-03-22T02:36:27;12.70;;;8.47;;
1993;SDS011;998;49.906;10.908;2023-03-22T02:39:23;13.20;;;7.80;;
1993;SDS011;998;49.906;10.908;2023-03-22T02:42:09;11.00;;;7.80;;
1993;SDS011;998;49.906;10.908;2023-03-22T02:44:50;12.47;;;8.17;;
1993;SDS011;998;49.906;10.908;2023-03-22T02:47:29;12.30;;;7.70;;
1993;SDS011;998;49.906;10.908;2023-03-22T02:50:05;12.90;;;9.83;;
1993;SDS011;998;49.906;10.908;2023-03-22T02:52:37;17.83;;;9.20;;
1993;SDS011;998;49.906;10.908;2023-03-22T02:55:10;12.73;;;7.97;;
1993;SDS011;998;49.906;10.908;2023-03-22T02:57:43;14.80;;;8.87;;
1993;SDS011;998;49.906;10.908;2023-03-22T03:00:14;13.60;;;9.37;;
1993;SDS011;998;49.906;10.908;2023-03-22T03:02:46;14.23;;;8.70;;
1993;SDS011;998;49.906;10.908;2023-03-22T03:05:16;12.17;;;8.00;;
1993;SDS011;998;49.906;10.908;2023-03-22T03:07:45;11.97;;;8.33;;
1993;SDS011;998;49.906;10.908;2023-03-22T03:10:17;17.10;;;8.50;;
1993;SDS011;998;49.906;10.908;2023-03-22T03:12:46;13.63;;;9.67;;
1993;SDS011;998;49.906;10.908;2023-03-22T03:15:14;10.80;;;7.90;;
1993;SDS011;998;49.906;10.908;2023-03-22T03:17:48;14.87;;;8.20;;
1993;SDS011;998;49.906;10.908;2023-03-22T03:20:26;11.47;;;7.93;;
1993;SDS011;998;49.906;10.908;2023-03-22T03:23:09;10.23;;;7.63;;
1993;SDS011;998;49.906;10.908;2023-03-22T03:25:49;15.50;;;7.40;;
1993;SDS011;998;49.906;10.908;2023-03-22T03:28:23;10.23;;;7.70;;
1993;SDS011;998;49.906;10.908;2023-03-22T03:31:02;12.57;;;8.60;;
1993;SDS011;998;49.906;10.908;2023-03-22T03:33:37;13.10;;;9.43;;
1993;SDS011;998;49.906;10.908;2023-03-22T03:36:10;12.70;;;7.43;;
1993;SDS011;998;49.906;10.908;2023-03-22T03:38:41;12.20;;;7.90;;
1993;SDS011;998;49.906;10.908;2023-03-22T03:41:14;15.17;;;8.20;;
1993;SDS011;998;49.906;10.908;2023-03-22T03:43:44;11.87;;;8.23;;
1993;SDS011;998;49.906;10.908;2023-03-22T03:46:13;16.60;;;8.40;;
1993;SDS011;998;49.906;10.908;2023-03-22T03:48:41;10.40;;;7.33;;
1993;SDS011;998;49.906;10.908;2023-03-22T03:51:13;15.13;;;7.47;;
1993;SDS011;998;49.906;10.908;2023-03-22T03:53:40;11.77;;;8.47;;
1993;SDS011;998;49.906;10.908;2023-03-22T03:56:08;13.87;;;7.33;;
1993;SDS011;998;49.906;10.908;2023-03-22T03:58:37;13.10;;;8.20;;
1993;SDS011;998;49.906;10.908;2023-03-22T04:01:05;10.93;;;6.70;;
1993;SDS011;998;49.906;10.908;2023-03-22T04:03:33;11.70;;;8.60;;
1993;SDS011;998;49.906;10.908;2023-03-22T04:06:00;11.60;;;7.83;;
1993;SDS011;998;49.906;10.908;2023-03-22T04:08:28;11.13;;;7.63;;
1993;SDS011;998;49.906;10.908;2023-03-22T04:10:55;14.30;;;8.03;;
1993;SDS011;998;49.906;10.908;2023-03-22T04:13:23;10.60;;;7.87;;
1993;SDS011;998;49.906;10.908;2023-03-22T04:15:55;11.67;;;7.90;;
1993;SDS011;998;49.906;10.908;2023-03-22T04:18:26;10.73;;;7.57;;
1993;SDS011;998;49.906;10.908;2023-03-22T04:20:54;10.90;;;7.63;;
1993;SDS011;998;49.906;10.908;2023-03-22T04:23:22;11.60;;;7.70;;
1993;SDS011;998;49.906;10.908;2023-03-22T04:25:50;10.27;;;7.10;;
1993;SDS011;998;49.906;10.908;2023-03-22T04:28:17;11.70;;;7.97;;
1993;SDS011;998;49.906;10.908;2023-03-22T04:30:45;12.73;;;7.90;;
1993;SDS011;998;49.906;10.908;2023-03-22T04:33:17;15.63;;;9.00;;
1993;SDS011;998;49.906;10.908;2023-03-22T04:35:47;10.83;;;7.50;;
1993;SDS011;998;49.906;10.908;2023-03-22T04:38:20;11.10;;;7.70;;
1993;SDS011;998;49.906;10.908;2023-03-22T04:40:49;12.40;;;7.50;;
1993;SDS011;998;49.906;10.908;2023-03-22T04:43:16;18.40;;;10.43;;
1993;SDS011;998;49.906;10.908;2023-03-22T04:45:44;10.50;;;8.03;;
1993;SDS011;998;49.906;10.908;2023-03-22T04:48:11;13.20;;;7.50;;
1993;SDS011;998;49.906;10.908;2023-03-22T04:50:40;13.83;;;8.07;;
1993;SDS011;998;49.906;10.908;2023-03-22T04:53:08;19.70;;;8.10;;
1993;SDS011;998;49.906;10.908;2023-03-22T04:55:36;12.00;;;8.10;;
1993;SDS011;998;49.906;10.908;2023-03-22T04:58:04;12.33;;;8.30;;
1993;SDS011;998;49.906;10.908;2023-03-22T05:00:31;14.87;;;8.70;;
1993;SDS011;998;49.906;10.908;2023-03-22T05:02:58;13.87;;;8.50;;
1993;SDS011;998;49.906;10.908;2023-03-22T05:05:26;16.27;;;10.30;;
1993;SDS011;998;49.906;10.908;2023-03-22T05:07:54;20.30;;;9.43;;
1993;SDS011;998;49.906;10.908;2023-03-22T05:10:22;15.07;;;9.20;;
1993;SDS011;998;49.906;10.908;2023-03-22T05:12:50;18.40;;;9.60;;
1993;SDS011;998;49.906;10.908;2023-03-22T05:15:17;13.47;;;8.80;;
1993;SDS011;998;49.906;10.908;2023-03-22T05:17:45;13.90;;;8.73;;
1993;SDS011;998;49.906;10.908;2023-03-22T05:20:12;16.23;;;10.00;;
1993;SDS011;998;49.906;10.908;2023-03-22T05:22:39;17.23;;;9.53;;
1993;SDS011;998;49.906;10.908;2023-03-22T05:25:08;19.80;;;8.53;;
1993;SDS011;998;49.906;10.908;2023-03-22T05:27:35;11.10;;;7.80;;
1993;SDS011;998;49.906;10.908;2023-03-22T05:30:04;12.03;;;8.10;;
1993;SDS011;998;49.906;10.908;2023-03-22T05:32:32;16.10;;;8.47;;
1993;SDS011;998;49.906;10.908;2023-03-22T05:35:01;15.23;;;7.50;;
1993;SDS011;998;49.906;10.908;2023-03-22T05:37:30;25.50;;;9.00;;
1993;SDS011;998;49.906;10.908;2023-03-22T05:39:57;20.43;;;10.10;;
1993;SDS011;998;49.906;10.908;2023-03-22T05:42:26;13.17;;;7.73;;
1993;SDS011;998;49.906;10.908;2023-03-22T05:44:54;15.60;;;8.90;;
1993;SDS011;998;49.906;10.908;2023-03-22T05:47:21;14.07;;;8.50;;
1993;SDS011;998;49.906;10.908;2023-03-22T05:49:48;14.00;;;7.63;;
1993;SDS011;998;49.906;10.908;2023-03-22T05:52:16;13.10;;;7.93;;
1993;SDS011;998;49.906;10.908;2023-03-22T05:54:43;15.90;;;9.90;;
1993;SDS011;998;49.906;10.908;2023-03-22T05:57:11;14.27;;;9.33;;
1993;SDS011;998;49.906;10.908;2023-03-22T05:59:39;13.80;;;9.10;;
1993;SDS011;998;49.906;10.908;2023-03-22T06:02:07;11.50;;;8.57;;
1993;SDS011;998;49.906;10.908;2023-03-22T06:04:34;11.00;;;8.27;;
1993;SDS011;998;49.906;10.908;2023-03-22T06:07:02;14.30;;;8.90;;
1993;SDS011;998;49.906;10.908;2023-03-22T06:09:29;15.50;;;9.73;;
1993;SDS011;998;49.906;10.908;2023-03-22T06:11:57;18.17;;;9.93;;
1993;SDS011;998;49.906;10.908;2023-03-22T06:14:24;17.40;;;10.53;;
1993;SDS011;998;49.906;10.908;2023-03-22T06:16:53;18.07;;;11.60;;
1993;SDS011;998;49.906;10.908;2023-03-22T06:19:20;11.80;;;8.33;;
1993;SDS011;998;49.906;10.908;2023-03-22T06:21:49;12.80;;;8.80;;
1993;SDS011;998;49.906;10.908;2023-03-22T06:24:17;18.83;;;11.67;;
1993;SDS011;998;49.906;10.908;2023-03-22T06:26:44;17.43;;;11.43;;
1993;SDS011;998;49.906;10.908;2023-03-22T06:29:12;18.23;;;10.70;;
1993;SDS011;998;49.906;10.908;2023-03-22T06:31:39;15.33;;;9.50;;
1993;SDS011;998;49.906;10.908;2023-03-22T06:34:08;13.63;;;9.53;;
1993;SDS011;998;49.906;10.908;2023-03-22T06:36:36;15.60;;;9.60;;
1993;SDS011;998;49.906;10.908;2023-03-22T06:39:03;14.23;;;9.80;;
1993;SDS011;998;49.906;10.908;2023-03-22T06:41:30;13.90;;;9.70;;
1993;SDS011;998;49.906;10.908;2023-03-22T06:43:58;13.87;;;9.90;;
1993;SDS011;998;49.906;10.908;2023-03-22T06:46:25;17.47;;;9.47;;
1993;SDS011;998;49.906;10.908;2023-03-22T06:48:53;19.40;;;10.83;;
1993;SDS011;998;49.906;10.908;2023-03-22T06:51:21;14.37;;;10.73;;
1993;SDS011;998;49.906;10.908;2023-03-22T06:53:49;15.87;;;9.50;;
1993;SDS011;998;49.906;10.908;2023-03-22T06:56:16;15.47;;;9.80;;
1993;SDS011;998;49.906;10.908;2023-03-22T06:58:43;20.63;;;9.07;;
1993;SDS011;998;49.906;10.908;2023-03-22T07:01:11;12.23;;;7.90;;
1993;SDS011;998;49.906;10.908;2023-03-22T07:03:38;11.57;;;8.63;;
1993;SDS011;998;49.906;10.908;2023-03-22T07:06:06;14.50;;;9.07;;
1993;SDS011;998;49.906;10.908;2023-03-22T07:08:35;12.97;;;8.60;;
1993;SDS011;998;49.906;10.908;2023-03-22T07:11:03;12.37;;;7.83;;
1993;SDS011;998;49.906;10.908;2023-03-22T07:13:31;13.33;;;8.50;;
1993;SDS011;998;49.906;10.908;2023-03-22T07:15:59;12.70;;;7.30;;
1993;SDS011;998;49.906;10.908;2023-03-22T07:18:27;11.30;;;7.70;;
1993;SDS011;998;49.906;10.908;2023-03-22T07:20:55;18.23;;;7.33;;
1993;SDS011;998;49.906;10.908;2023-03-22T07:23:22;10.20;;;8.63;;
1993;SDS011;998;49.906;10.908;2023-03-22T07:25:51;10.90;;;7.17;;
1993;SDS011;998;49.906;10.908;2023-03-22T07:28:20;8.93;;;7.23;;
1993;SDS011;998;49.906;10.908;2023-03-22T07:30:47;12.80;;;7.70;;
1993;SDS011;998;49.906;10.908;2023-03-22T07:33:14;10.03;;;7.70;;
1993;SDS011;998;49.906;10.908;2023-03-22T07:35:41;13.30;;;7.53;;
1993;SDS011;998;49.906;10.908;2023-03-22T07:38:09;10.00;;;8.13;;
1993;SDS011;998;49.906;10.908;2023-03-22T07:40:35;10.40;;;8.43;;
1993;SDS011;998;49.906;10.908;2023-03-22T07:43:04;12.90;;;7.40;;
1993;SDS011;998;49.906;10.908;2023-03-22T07:45:32;11.40;;;7.93;;
1993;SDS011;998;49.906;10.908;2023-03-22T07:48:00;10.07;;;7.70;;
1993;SDS011;998;49.906;10.908;2023-03-22T07:50:28;11.90;;;7.93;;
1993;SDS011;998;49.906;10.908;2023-03-22T07:52:55;11.37;;;7.93;;
1993;SDS011;998;49.906;10.908;2023-03-22T07:55:23;10.90;;;7.20;;
1993;SDS011;998;49.906;10.908;2023-03-22T07:57:50;12.50;;;7.83;;
1993;SDS011;998;49.906;10.908;2023-03-22T08:00:19;10.40;;;7.50;;
1993;SDS011;998;49.906;10.908;2023-03-22T08:02:47;12.07;;;7.73;;
1993;SDS011;998;49.906;10.908;2023-03-22T08:05:14;12.77;;;7.20;;
1993;SDS011;998;49.906;10.908;2023-03-22T08:07:42;10.10;;;6.40;;
1993;SDS011;998;49.906;10.908;2023-03-22T08:10:10;12.53;;;7.77;;
1993;SDS011;998;49.906;10.908;2023-03-22T08:12:37;11.23;;;7.87;;
1993;SDS011;998;49.906;10.908;2023-03-22T08:15:05;11.20;;;7.17;;
1993;SDS011;998;49.906;10.908;2023-03-22T08:17:35;13.77;;;9.43;;
1993;SDS011;998;49.906;10.908;2023-03-22T08:20:03;13.50;;;8.60;;
1993;SDS011;998;49.906;10.908;2023-03-22T08:22:33;13.30;;;6.73;;
1993;SDS011;998;49.906;10.908;2023-03-22T08:25:01;10.40;;;6.47;;
1993;SDS011;998;49.906;10.908;2023-03-22T08:27:28;11.20;;;6.87;;
1993;SDS011;998;49.906;10.908;2023-03-22T08:29:56;10.73;;;6.00;;
1993;SDS011;998;49.906;10.908;2023-03-22T08:32:25;7.90;;;5.80;;
1993;SDS011;998;49.906;10.908;2023-03-22T08:34:53;7.70;;;6.50;;
1993;SDS011;998;49.906;10.908;2023-03-22T08:37:21;8.80;;;6.10;;
1993;SDS011;998;49.906;10.908;2023-03-22T08:39:48;14.13;;;5.67;;
1993;SDS011;998;49.906;10.908;2023-03-22T08:42:15;8.70;;;6.53;;
1993;SDS011;998;49.906;10.908;2023-03-22T08:44:43;8.37;;;5.33;;
1993;SDS011;998;49.906;10.908;2023-03-22T08:47:10;14.13;;;6.20;;
1993;SDS011;998;49.906;10.908;2023-03-22T08:49:38;11.93;;;7.80;;
1993;SDS011;998;49.906;10.908;2023-03-22T08:52:07;8.73;;;6.33;;
1993;SDS011;998;49.906;10.908;2023-03-22T08:54:35;9.47;;;5.90;;
1993;SDS011;998;49.906;10.908;2023-03-22T08:57:03;6.97;;;5.50;;
1993;SDS011;998;49.906;10.908;2023-03-22T08:59:33;11.03;;;5.70;;
1993;SDS011;998;49.906;10.908;2023-03-22T09:02:01;10.40;;;5.67;;
1993;SDS011;998;49.906;10.908;2023-03-22T09:04:28;8.00;;;5.67;;
1993;SDS011;998;49.906;10.908;2023-03-22T09:06:55;8.50;;;5.30;;
1993;SDS011;998;49.906;10.908;2023-03-22T09:09:24;9.90;;;5.40;;
1993;SDS011;998;49.906;10.908;2023-03-22T09:11:52;7.53;;;5.47;;
1993;SDS011;998;49.906;10.908;2023-03-22T09:14:20;9.17;;;5.73;;
1993;SDS011;998;49.906;10.908;2023-03-22T09:16:47;8.90;;;5.70;;
1993;SDS011;998;49.906;10.908;2023-03-22T09:19:15;6.90;;;5.27;;
1993;SDS011;998;49.906;10.908;2023-03-22T09:21:43;6.53;;;5.10;;
1993;SDS011;998;49.906;10.908;2023-03-22T09:24:10;7.67;;;4.83;;
1993;SDS011;998;49.906;10.908;2023-03-22T09:26:39;10.60;;;6.00;;
1993;SDS011;998;49.906;10.908;2023-03-22T09:29:06;8.73;;;5.67;;
1993;SDS011;998;49.906;10.908;2023-03-22T09:31:34;8.43;;;3.70;;
1993;SDS011;998;49.906;10.908;2023-03-22T09:34:01;5.63;;;3.80;;
1993;SDS011;998;49.906;10.908;2023-03-22T09:36:29;5.00;;;3.10;;
1993;SDS011;998;49.906;10.908;2023-03-22T09:38:58;2.97;;;1.90;;
1993;SDS011;998;49.906;10.908;2023-03-22T09:41:30;5.50;;;2.63;;
1993;SDS011;998;49.906;10.908;2023-03-22T09:44:05;6.83;;;2.00;;
1993;SDS011;998;49.906;10.908;2023-03-22T09:46:38;3.43;;;2.00;;
1993;SDS011;998;49.906;10.908;2023-03-22T09:49:09;3.27;;;1.40;;
1993;SDS011;998;49.906;10.908;2023-03-22T09:51:42;4.00;;;1.77;;
1993;SDS011;998;49.906;10.908;2023-03-22T09:54:11;3.27;;;1.60;;
1993;SDS011;998;49.906;10.908;2023-03-22T09:56:43;3.00;;;1.40;;
1993;SDS011;998;49.906;10.908;2023-03-22T09:59:16;3.67;;;1.90;;
1993;SDS011;998;49.906;10.908;2023-03-22T10:01:52;3.83;;;1.57;;
1993;SDS011;998;49.906;10.908;2023-03-22T10:04:37;2.73;;;1.30;;
1993;SDS011;998;49.906;10.908;2023-03-22T10:07:15;3.20;;;1.30;;
1993;SDS011;998;49.906;10.908;2023-03-22T10:09:53;2.60;;;1.50;;
1993;SDS011;998;49.906;10.908;2023-03-22T10:12:28;2.43;;;1.27;;
1993;SDS011;998;49.906;10.908;2023-03-22T10:15:01;4.70;;;1.50;;
1993;SDS011;998;49.906;10.908;2023-03-22T10:17:31;3.90;;;1.40;;
1993;SDS011;998;49.906;10.908;2023-03-22T10:20:04;3.93;;;1.90;;
1993;SDS011;998;49.906;10.908;2023-03-22T10:22:35;3.90;;;1.70;;
1993;SDS011;998;49.906;10.908;2023-03-22T10:25:08;3.67;;;1.13;;
1993;SDS011;998;49.906;10.908;2023-03-22T10:27:41;5.37;;;1.80;;
1993;SDS011;998;49.906;10.908;2023-03-22T10:30:15;4.47;;;1.30;;
1993;SDS011;998;49.906;10.908;2023-03-22T10:32:47;3.30;;;1.43;;
1993;SDS011;998;49.906;10.908;2023-03-22T10:35:18;5.03;;;1.50;;
1993;SDS011;998;49.906;10.908;2023-03-22T10:37:46;3.30;;;1.37;;
1993;SDS011;998;49.906;10.908;2023-03-22T10:40:16;5.10;;;1.30;;
1993;SDS011;998;49.906;10.908;2023-03-22T10:42:49;4.23;;;1.57;;
1993;SDS011;998;49.906;10.908;2023-03-22T10:45:21;7.43;;;1.80;;
1993;SDS011;998;49.906;10.908;2023-03-22T10:47:53;3.13;;;1.70;;
1993;SDS011;998;49.906;10.908;2023-03-22T10:50:25;3.23;;;1.70;;
1993;SDS011;998;49.906;10.908;2023-03-22T10:52:56;3.80;;;1.73;;
1993;SDS011;998;49.906;10.908;2023-03-22T10:55:27;3.53;;;1.40;;
1993;SDS011;998;49.906;10.908;2023-03-22T10:57:56;3.70;;;1.87;;
1993;SDS011;998;49.906;10.908;2023-03-22T11:00:37;2.93;;;1.40;;
1993;SDS011;998;49.906;10.908;2023-03-22T11:03:16;2.93;;;1.23;;
1993;SDS011;998;49.906;10.908;2023-03-22T11:05:57;2.80;;;1.60;;
1993;SDS011;998;49.906;10.908;2023-03-22T11:08:25;4.27;;;1.60;;
1993;SDS011;998;49.906;10.908;2023-03-22T11:10:52;3.53;;;1.90;;
1993;SDS011;998;49.906;10.908;2023-03-22T11:13:24;3.10;;;1.53;;
1993;SDS011;998;49.906;10.908;2023-03-22T11:15:57;4.33;;;1.70;;
1993;SDS011;998;49.906;10.908;2023-03-22T11:18:28;3.40;;;1.70;;
1993;SDS011;998;49.906;10.908;2023-03-22T11:20:57;7.43;;;3.40;;
1993;SDS011;998;49.906;10.908;2023-03-22T11:23:26;4.40;;;2.10;;
1993;SDS011;998;49.906;10.908;2023-03-22T11:25:59;2.47;;;1.50;;
1993;SDS011;998;49.906;10.908;2023-03-22T11:28:33;9.33;;;3.23;;
1993;SDS011;998;49.906;10.908;2023-03-22T11:31:05;3.30;;;1.63;;
1993;SDS011;998;49.906;10.908;2023-03-22T11:33:35;2.87;;;1.60;;
1993;SDS011;998;49.906;10.908;2023-03-22T11:36:04;3.17;;;1.80;;
1993;SDS011;998;49.906;10.908;2023-03-22T11:38:41;3.60;;;1.70;;
1993;SDS011;998;49.906;10.908;2023-03-22T11:41:11;4.67;;;2.27;;
1993;SDS011;998;49.906;10.908;2023-03-22T11:43:46;2.80;;;2.10;;
1993;SDS011;998;49.906;10.908;2023-03-22T11:46:17;2.57;;;1.33;;
1993;SDS011;998;49.906;10.908;2023-03-22T11:48:46;4.37;;;1.90;;
1993;SDS011;998;49.906;10.908;2023-03-22T11:51:16;4.70;;;2.47;;
1993;SDS011;998;49.906;10.908;2023-03-22T11:53:54;3.53;;;1.90;;
1993;SDS011;998;49.906;10.908;2023-03-22T11:56:25;3.13;;;1.37;;
1993;SDS011;998;49.906;10.908;2023-03-22T11:58:56;3.57;;;1.80;;
1993;SDS011;998;49.906;10.908;2023-03-22T12:01:37;2.80;;;1.57;;
1993;SDS011;998;49.906;10.908;2023-03-22T12:04:10;2.60;;;1.33;;
1993;SDS011;998;49.906;10.908;2023-03-22T12:06:41;2.43;;;1.30;;
1993;SDS011;998;49.906;10.908;2023-03-22T12:09:12;3.27;;;1.10;;
1993;SDS011;998;49.906;10.908;2023-03-22T12:11:50;2.60;;;1.40;;
1993;SDS011;998;49.906;10.908;2023-03-22T12:14:21;5.50;;;1.27;;
1993;SDS011;998;49.906;10.908;2023-03-22T12:16:54;2.70;;;1.33;;
1993;SDS011;998;49.906;10.908;2023-03-22T12:19:35;4.53;;;1.77;;
1993;SDS011;998;49.906;10.908;2023-03-22T12:22:11;4.17;;;1.23;;
1993;SDS011;998;49.906;10.908;2023-03-22T12:24:41;3.70;;;1.43;;
1993;SDS011;998;49.906;10.908;2023-03-22T12:27:11;2.23;;;1.20;;
1993;SDS011;998;49.906;10.908;2023-03-22T12:29:43;6.37;;;1.40;;
1993;SDS011;998;49.906;10.908;2023-03-22T12:32:18;5.00;;;1.90;;
1993;SDS011;998;49.906;10.908;2023-03-22T12:34:50;2.87;;;1.30;;
1993;SDS011;998;49.906;10.908;2023-03-22T12:37:19;4.00;;;1.77;;
1993;SDS011;998;49.906;10.908;2023-03-22T12:39:51;3.80;;;1.53;;
1993;SDS011;998;49.906;10.908;2023-03-22T12:42:22;2.20;;;1.30;;
1993;SDS011;998;49.906;10.908;2023-03-22T12:44:57;4.47;;;1.53;;
1993;SDS011;998;49.906;10.908;2023-03-22T12:47:30;2.90;;;1.10;;
1993;SDS011;998;49.906;10.908;2023-03-22T12:50:03;3.20;;;1.50;;
1993;SDS011;998;49.906;10.908;2023-03-22T12:52:37;4.57;;;1.13;;
1993;SDS011;998;49.906;10.908;2023-03-22T12:55:10;4.27;;;1.83;;
1993;SDS011;998;49.906;10.908;2023-03-22T12:57:46;3.67;;;1.47;;
1993;SDS011;998;49.906;10.908;2023-03-22T13:00:16;3.90;;;1.30;;
1993;SDS011;998;49.906;10.908;2023-03-22T13:02:48;5.10;;;1.47;;
1993;SDS011;998;49.906;10.908;2023-03-22T13:05:22;2.87;;;1.30;;
1993;SDS011;998;49.906;10.908;2023-03-22T13:07:54;3.13;;;1.30;;
1993;SDS011;998;49.906;10.908;2023-03-22T13:19:28;2.60;;;1.70;;
1993;SDS011;998;49.906;10.908;2023-03-22T13:22:16;3.07;;;1.50;;
1993;SDS011;998;49.906;10.908;2023-03-22T13:24:59;3.57;;;1.57;;
1993;SDS011;998;49.906;10.908;2023-03-22T13:27:35;5.50;;;1.63;;
1993;SDS011;998;49.906;10.908;2023-03-22T13:30:12;2.83;;;1.60;;
1993;SDS011;998;49.906;10.908;2023-03-22T13:32:44;7.60;;;1.23;;
1993;SDS011;998;49.906;10.908;2023-03-22T13:35:24;3.03;;;0.90;;
1993;SDS011;998;49.906;10.908;2023-03-22T13:37:53;2.43;;;1.47;;
1993;SDS011;998;49.906;10.908;2023-03-22T13:40:28;3.93;;;1.27;;
1993;SDS011;998;49.906;10.908;2023-03-22T13:43:09;3.63;;;1.47;;
1993;SDS011;998;49.906;10.908;2023-03-22T13:46:00;3.47;;;1.20;;
1993;SDS011;998;49.906;10.908;2023-03-22T13:48:50;2.80;;;1.40;;
1993;SDS011;998;49.906;10.908;2023-03-22T13:51:26;3.40;;;1.17;;
1993;SDS011;998;49.906;10.908;2023-03-22T13:53:57;2.70;;;1.20;;
1993;SDS011;998;49.906;10.908;2023-03-22T13:56:31;2.53;;;1.33;;
1993;SDS011;998;49.906;10.908;2023-03-22T13:59:13;4.60;;;1.40;;
1993;SDS011;998;49.906;10.908;2023-03-22T14:01:46;3.40;;;1.30;;
1993;SDS011;998;49.906;10.908;2023-03-22T14:04:18;3.43;;;1.33;;
1993;SDS011;998;49.906;10.908;2023-03-22T14:06:54;4.73;;;1.40;;
1993;SDS011;998;49.906;10.908;2023-03-22T14:09:24;4.80;;;2.30;;
1993;SDS011;998;49.906;10.908;2023-03-22T14:11:59;4.13;;;1.33;;
1993;SDS011;998;49.906;10.908;2023-03-22T14:14:31;3.30;;;1.43;;
1993;SDS011;998;49.906;10.908;2023-03-22T14:17:09;3.97;;;1.07;;
1993;SDS011;998;49.906;10.908;2023-03-22T14:19:43;3.10;;;1.47;;
1993;SDS011;998;49.906;10.908;2023-03-22T14:22:13;3.20;;;1.47;;
1993;SDS011;998;49.906;10.908;2023-03-22T14:24:46;5.93;;;1.23;;
1993;SDS011;998;49.906;10.908;2023-03-22T14:27:16;3.90;;;1.20;;
1993;SDS011;998;49.906;10.908;2023-03-22T14:29:44;2.23;;;0.90;;
1993;SDS011;998;49.906;10.908;2023-03-22T14:32:13;1.90;;;0.80;;
1993;SDS011;998;49.906;10.908;2023-03-22T14:34:43;2.60;;;1.13;;
1993;SDS011;998;49.906;10.908;2023-03-22T14:37:15;2.33;;;1.03;;
1993;SDS011;998;49.906;10.908;2023-03-22T14:39:44;2.07;;;0.90;;
1993;SDS011;998;49.906;10.908;2023-03-22T14:42:16;2.83;;;1.53;;
1993;SDS011;998;49.906;10.908;2023-03-22T14:44:51;2.00;;;0.80;;
1993;SDS011;998;49.906;10.908;2023-03-22T14:47:20;3.80;;;1.50;;
1993;SDS011;998;49.906;10.908;2023-03-22T14:49:51;4.00;;;1.57;;
1993;SDS011;998;49.906;10.908;2023-03-22T14:52:23;3.23;;;1.50;;
1993;SDS011;998;49.906;10.908;2023-03-22T14:54:53;2.17;;;0.90;;
1993;SDS011;998;49.906;10.908;2023-03-22T14:57:24;3.60;;;1.30;;
1993;SDS011;998;49.906;10.908;2023-03-22T14:59:53;8.03;;;1.30;;
1993;SDS011;998;49.906;10.908;2023-03-22T15:02:26;3.67;;;1.13;;
1993;SDS011;998;49.906;10.908;2023-03-22T15:05:00;2.20;;;1.00;;
1993;SDS011;998;49.906;10.908;2023-03-22T15:07:42;3.23;;;1.10;;
1993;SDS011;998;49.906;10.908;2023-03-22T15:10:12;3.57;;;1.40;;
1993;SDS011;998;49.906;10.908;2023-03-22T15:12:43;2.13;;;1.00;;
1993;SDS011;998;49.906;10.908;2023-03-22T15:15:12;3.90;;;1.00;;
1993;SDS011;998;49.906;10.908;2023-03-22T15:17:41;4.20;;;1.30;;
1993;SDS011;998;49.906;10.908;2023-03-22T15:20:11;2.10;;;0.90;;
1993;SDS011;998;49.906;10.908;2023-03-22T15:22:50;2.37;;;1.07;;
1993;SDS011;998;49.906;10.908;2023-03-22T15:25:18;2.33;;;1.00;;
1993;SDS011;998;49.906;10.908;2023-03-22T15:27:46;2.00;;;0.97;;
1993;SDS011;998;49.906;10.908;2023-03-22T15:30:17;2.93;;;1.03;;
1993;SDS011;998;49.906;10.908;2023-03-22T15:32:45;2.30;;;1.03;;
1993;SDS011;998;49.906;10.908;2023-03-22T15:35:13;1.80;;;0.83;;
1993;SDS011;998;49.906;10.908;2023-03-22T15:37:46;2.40;;;1.00;;
1993;SDS011;998;49.906;10.908;2023-03-22T15:40:37;2.00;;;1.00;;
1993;SDS011;998;49.906;10.908;2023-03-22T15:43:14;2.40;;;1.03;;
1993;SDS011;998;49.906;10.908;2023-03-22T15:48:45;3.30;;;1.27;;